CWLY

Lytton Airport

Lytton, Canada
METAR CWLY 130708Z AUTO 18004KT 2 1/2SM BR BKN002 M00/M00 A3047 RMK SLP328
Observed Flight Rules
Nov-13 @ 07:08 UTC (31 minutes ago) Instrument Flight Rules
Wind Visibility Clouds Conditions
180° at 4 knots 2 1/2 miles
  • Broken at 200' AGL
  • Mist
Temperatures Readings
Current 0°C / 32°F
Dewpoint 0°C / 32°F
Humidity 100%
Altimeter 30.47" Hg
Pressure 1032.8 hPa
Elevation 229
METAR CWLY 130708Z AUTO 18004KT 2 1/2SM BR BKN002 M00/M00 A3047 RMK SLP328
Observed Flight Rules
Nov-13 @ 07:08 UTC
(31 minutes ago)
LIFR
Wind Visibility
180° at 4 knots 2 1/2 miles
Clouds
  • Broken at 200' AGL
Conditions
  • Mist
Temperature Dewpoint
0°C / 32°F 0°C / 32°F
Humidity Altimeter Pressure
100% 30.47" Hg 1032.8 hPa